createdAt,value
2023-05-01T00:02:26.929Z,96295.63
2023-05-01T00:04:54.806Z,96281.50
2023-05-01T00:07:22.588Z,96295.63
2023-05-01T00:09:50.348Z,96295.19
2023-05-01T00:12:18.172Z,96289.28
2023-05-01T00:14:46.169Z,96289.97
2023-05-01T00:17:14.451Z,96284.97
2023-05-01T00:19:43.759Z,96293.09
2023-05-01T00:22:11.629Z,96282.66
2023-05-01T00:24:39.656Z,96287.22
2023-05-01T00:27:07.973Z,96286.84
2023-05-01T00:29:36.102Z,96291.41
2023-05-01T00:32:05.896Z,96283.59
2023-05-01T00:34:33.810Z,96283.28
2023-05-01T00:37:02.853Z,96284.63
2023-05-01T00:39:30.657Z,96278.97
2023-05-01T00:41:58.423Z,96281.78
2023-05-01T00:44:26.141Z,96273.72
2023-05-01T00:46:56.454Z,96292.66
2023-05-01T00:49:24.313Z,96297.59
2023-05-01T00:51:54.279Z,96294.75
2023-05-01T00:54:25.180Z,96292.50
2023-05-01T00:56:53.817Z,96308.56
2023-05-01T00:59:22.191Z,96298.91
2023-05-01T01:01:49.966Z,96313.41
2023-05-01T01:04:17.688Z,96303.75
2023-05-01T01:06:53.763Z,96316.16
2023-05-01T01:09:33.101Z,96313.75
2023-05-01T01:12:10.567Z,96309.00
2023-05-01T01:14:49.494Z,96308.34
2023-05-01T01:17:31.703Z,96312.19
2023-05-01T01:20:15.164Z,96318.50
2023-05-01T01:22:47.492Z,96311.78
2023-05-01T01:25:41.571Z,96317.03
2023-05-01T01:28:25.098Z,96303.72
2023-05-01T01:31:13.127Z,96288.47
2023-05-01T01:33:57.605Z,96312.84
2023-05-01T01:36:35.440Z,96320.88
2023-05-01T01:39:09.958Z,96316.09
2023-05-01T01:41:39.700Z,96315.53
2023-05-01T01:44:13.837Z,96318.72
2023-05-01T01:46:43.815Z,96312.00
2023-05-01T01:49:19.569Z,96320.22
2023-05-01T01:51:49.846Z,96323.00
2023-05-01T01:54:23.205Z,96324.25
2023-05-01T01:56:52.429Z,96333.31
2023-05-01T01:59:22.768Z,96327.63
2023-05-01T02:01:52.939Z,96322.50
2023-05-01T02:04:23.741Z,96328.03
2023-05-01T02:06:53.101Z,96322.66
2023-05-01T02:09:22.975Z,96321.75
2023-05-01T02:11:52.358Z,96321.88
2023-05-01T02:14:22.836Z,96318.00
2023-05-01T02:16:52.198Z,96328.47
2023-05-01T02:19:21.306Z,96309.19
2023-05-01T02:21:51.431Z,96320.53
2023-05-01T02:24:22.641Z,96314.66
2023-05-01T02:27:06.462Z,96318.94
2023-05-01T02:29:35.352Z,96320.75
2023-05-01T02:32:03.789Z,96319.81
2023-05-01T02:34:31.573Z,96313.91
2023-05-01T02:37:00.767Z,96309.41
2023-05-01T02:39:28.604Z,96305.38
2023-05-01T02:41:58.928Z,96305.00
2023-05-01T02:44:28.837Z,96311.97
2023-05-01T02:46:58.155Z,96310.25
2023-05-01T02:49:26.756Z,96306.63
2023-05-01T02:51:54.892Z,96303.47
2023-05-01T02:54:24.558Z,96289.63
2023-05-01T02:56:53.022Z,96297.06
2023-05-01T02:59:20.686Z,96303.94
2023-05-01T03:01:48.488Z,96311.28
2023-05-01T03:04:16.362Z,96300.34
2023-05-01T03:06:44.653Z,96304.19
2023-05-01T03:09:12.760Z,96296.38
2023-05-01T03:11:42.116Z,96298.50
2023-05-01T03:14:11.166Z,96303.63
2023-05-01T03:16:38.945Z,96301.59
2023-05-01T03:19:07.229Z,96296.13
2023-05-01T03:21:35.138Z,96293.88
2023-05-01T03:24:03.295Z,96301.59
2023-05-01T03:26:31.285Z,96295.22
2023-05-01T03:29:00.552Z,96308.03
2023-05-01T03:31:28.382Z,96304.00
2023-05-01T03:33:56.391Z,96305.63
2023-05-01T03:36:25.065Z,96308.31
2023-05-01T03:38:52.813Z,96297.13
2023-05-01T03:41:21.416Z,96302.91
2023-05-01T03:43:50.422Z,96289.44
2023-05-01T03:46:19.875Z,96295.22
2023-05-01T03:48:47.806Z,96284.19
2023-05-01T03:51:17.226Z,96287.81
2023-05-01T03:53:45.115Z,96293.59
2023-05-01T03:56:13.053Z,96286.53
2023-05-01T03:58:41.075Z,96275.28
2023-05-01T04:01:09.267Z,96284.41
2023-05-01T04:03:38.707Z,96275.94
2023-05-01T04:06:06.939Z,96280.13
2023-05-01T04:08:34.912Z,96291.16
2023-05-01T04:11:02.775Z,96282.25
2023-05-01T04:13:31.050Z,96283.66
2023-05-01T04:16:00.037Z,96293.78
2023-05-01T04:18:27.940Z,96302.00
2023-05-01T04:20:57.415Z,96299.69
2023-05-01T04:23:26.310Z,96296.78
2023-05-01T04:25:54.036Z,96290.69
2023-05-01T04:28:21.772Z,96279.88
2023-05-01T04:30:49.612Z,96297.34
2023-05-01T04:33:17.336Z,96299.97
2023-05-01T04:35:45.409Z,96290.59
2023-05-01T04:38:14.522Z,96301.75
2023-05-01T04:40:42.291Z,96296.88
2023-05-01T04:43:10.300Z,96308.41
2023-05-01T04:45:39.299Z,96322.66
2023-05-01T04:48:07.699Z,96303.84
2023-05-01T04:50:35.467Z,96310.81
2023-05-01T04:53:03.349Z,96300.28
2023-05-01T04:55:32.481Z,96286.34
2023-05-01T04:58:00.170Z,96309.13
2023-05-01T05:00:28.226Z,96317.03
2023-05-01T05:02:56.249Z,96306.34
2023-05-01T05:05:24.087Z,96302.75
2023-05-01T05:07:51.871Z,96307.34
2023-05-01T05:10:19.791Z,96301.84
2023-05-01T05:12:48.892Z,96308.53
2023-05-01T05:15:17.240Z,96319.72
2023-05-01T05:17:45.679Z,96324.81
2023-05-01T05:20:13.726Z,96336.72
2023-05-01T05:22:41.440Z,96324.88
2023-05-01T05:25:10.117Z,96328.47
2023-05-01T05:27:38.210Z,96327.47
2023-05-01T05:30:08.859Z,96338.31
2023-05-01T05:32:36.600Z,96320.34
2023-05-01T05:35:04.960Z,96317.19
2023-05-01T05:37:32.760Z,96320.75
2023-05-01T05:40:00.528Z,96328.84
2023-05-01T05:42:28.457Z,96331.03
2023-05-01T05:44:56.240Z,96339.38
2023-05-01T05:47:25.476Z,96333.06
2023-05-01T05:49:53.236Z,96329.97
2023-05-01T05:52:21.222Z,96332.03
2023-05-01T05:54:49.258Z,96343.13
2023-05-01T05:57:17.128Z,96338.47
2023-05-01T05:59:45.261Z,96328.59
2023-05-01T06:02:12.960Z,96328.84
2023-05-01T06:04:42.370Z,96308.81
2023-05-01T06:07:10.054Z,96261.56
2023-05-01T06:09:37.957Z,96321.84
2023-05-01T06:12:06.493Z,96312.88
2023-05-01T06:14:34.257Z,96309.84
2023-05-01T06:17:02.029Z,96317.88
2023-05-01T06:19:29.764Z,96317.38
2023-05-01T06:21:58.936Z,96316.47
2023-05-01T06:24:27.445Z,96314.56
2023-05-01T06:26:55.193Z,96305.16
2023-05-01T06:29:23.207Z,96313.31
2023-05-01T06:31:51.009Z,96305.53
2023-05-01T06:34:18.861Z,96300.56
2023-05-01T06:36:46.638Z,96297.81
2023-05-01T06:39:15.820Z,96304.31
2023-05-01T06:41:43.693Z,96312.41
2023-05-01T06:44:11.502Z,96300.81
2023-05-01T06:46:39.313Z,96317.41
2023-05-01T06:49:07.889Z,96313.41
2023-05-01T06:51:35.659Z,96320.63
2023-05-01T06:54:03.574Z,96322.28
2023-05-01T06:56:33.320Z,96311.25
2023-05-01T06:59:01.092Z,96313.09
2023-05-01T07:01:29.004Z,96316.53
2023-05-01T07:03:56.824Z,96324.81
2023-05-01T07:06:24.669Z,96325.16
2023-05-01T07:08:52.497Z,96307.38
2023-05-01T07:11:20.357Z,96321.50
2023-05-01T07:13:49.842Z,96325.81
2023-05-01T07:16:17.718Z,96323.09
2023-05-01T07:18:45.546Z,96330.34
2023-05-01T07:21:13.365Z,96321.59
2023-05-01T07:23:41.172Z,96310.06
2023-05-01T07:26:08.930Z,96317.53
2023-05-01T07:28:36.658Z,96313.00
2023-05-01T07:31:06.016Z,96316.84
2023-05-01T07:33:34.005Z,96313.16
2023-05-01T07:36:01.844Z,96310.84
2023-05-01T07:38:29.629Z,96316.44
2023-05-01T07:40:57.382Z,96332.25
2023-05-01T07:43:25.164Z,96321.59
2023-05-01T07:45:58.323Z,96331.00
2023-05-01T07:48:28.650Z,96313.53
2023-05-01T07:50:57.264Z,96320.84
2023-05-01T07:53:25.112Z,96319.25
2023-05-01T07:55:52.827Z,96327.16
2023-05-01T07:58:20.646Z,96335.84
2023-05-01T08:00:48.496Z,96340.28
2023-05-01T08:03:16.544Z,96338.34
2023-05-01T08:05:45.859Z,96334.94
2023-05-01T08:08:20.470Z,96349.72
2023-05-01T08:10:48.279Z,96333.09
2023-05-01T08:13:16.315Z,96344.16
2023-05-01T08:15:44.241Z,96339.91
2023-05-01T08:18:12.132Z,96344.16
2023-05-01T08:20:40.371Z,96344.25
2023-05-01T08:23:09.430Z,96344.78
2023-05-01T08:25:37.235Z,96349.78
2023-05-01T08:28:05.525Z,96335.63
2023-05-01T08:30:33.284Z,96344.28
2023-05-01T08:33:01.126Z,96347.06
2023-05-01T08:35:29.688Z,96344.88
2023-05-01T08:37:58.080Z,96335.25
2023-05-01T08:40:27.471Z,96342.78
2023-05-01T08:42:55.916Z,96331.03
2023-05-01T08:45:25.288Z,96331.59
2023-05-01T08:47:56.097Z,96338.94
2023-05-01T08:50:24.687Z,96345.59
2023-05-01T08:52:54.098Z,96346.13
2023-05-01T08:55:23.077Z,96342.66
2023-05-01T08:57:53.367Z,96346.91
2023-05-01T09:00:22.700Z,96328.06
2023-05-01T09:02:52.929Z,96346.91
2023-05-01T09:05:22.094Z,96346.09
2023-05-01T09:07:50.096Z,96350.09
2023-05-01T09:10:19.862Z,96342.94
2023-05-01T09:12:51.820Z,96356.66
2023-05-01T09:15:21.513Z,96348.72
2023-05-01T09:17:49.528Z,96350.63
2023-05-01T09:20:20.563Z,96335.91
2023-05-01T09:22:48.744Z,96351.06
2023-05-01T09:25:16.611Z,96354.53
2023-05-01T09:27:46.009Z,96355.88
2023-05-01T09:30:31.911Z,96351.66
2023-05-01T09:33:07.096Z,96349.41
2023-05-01T09:35:50.279Z,96355.88
2023-05-01T09:38:23.447Z,96364.78
2023-05-01T09:40:51.536Z,96355.69
2023-05-01T09:43:29.519Z,96344.19
2023-05-01T09:46:07.052Z,96354.50
2023-05-01T09:48:36.186Z,96361.91
2023-05-01T09:51:21.976Z,96361.69
2023-05-01T09:53:50.413Z,96347.97
2023-05-01T09:56:18.493Z,96353.19
2023-05-01T09:58:46.667Z,96356.56
2023-05-01T10:01:16.289Z,96348.13
2023-05-01T10:03:45.500Z,96350.00
2023-05-01T10:06:13.520Z,96351.69
2023-05-01T10:08:48.938Z,96337.41
2023-05-01T10:11:17.209Z,96340.06
2023-05-01T10:13:45.000Z,96340.59
2023-05-01T10:16:31.535Z,96342.28
2023-05-01T10:19:02.272Z,96338.75
2023-05-01T10:21:31.844Z,96339.59
2023-05-01T10:23:59.717Z,96344.69
2023-05-01T10:26:28.119Z,96335.28
2023-05-01T10:28:58.794Z,96342.81
2023-05-01T10:31:27.844Z,96337.97
2023-05-01T10:33:57.659Z,96337.44
2023-05-01T10:36:28.655Z,96326.34
2023-05-01T10:38:56.424Z,96331.47
2023-05-01T10:41:57.583Z,96333.66
2023-05-01T10:44:27.221Z,96339.84
2023-05-01T10:46:55.472Z,96340.06
2023-05-01T10:49:25.085Z,96336.88
2023-05-01T10:52:00.424Z,96332.41
2023-05-01T10:54:28.846Z,96334.28
2023-05-01T10:56:59.950Z,96313.31
2023-05-01T10:59:28.309Z,96321.00
2023-05-01T11:01:56.184Z,96330.25
2023-05-01T11:04:51.110Z,96337.59
2023-05-01T11:07:19.905Z,96313.53
2023-05-01T11:09:49.490Z,96319.94
2023-05-01T11:12:37.898Z,96313.81
2023-05-01T11:15:08.246Z,96321.63
2023-05-01T11:17:50.165Z,96319.16
2023-05-01T11:20:50.398Z,96330.09
2023-05-01T11:23:22.234Z,96324.00
2023-05-01T11:26:01.710Z,96329.25
2023-05-01T11:28:33.171Z,96303.38
2023-05-01T11:31:01.610Z,96329.91
2023-05-01T11:33:29.581Z,96326.59
2023-05-01T11:36:05.044Z,96326.25
2023-05-01T11:38:33.017Z,96337.41
2023-05-01T11:41:03.568Z,96324.94
2023-05-01T11:43:32.045Z,96333.66
2023-05-01T11:46:05.694Z,96326.34
2023-05-01T11:48:33.693Z,96328.00
2023-05-01T11:51:01.517Z,96333.69
2023-05-01T11:53:30.791Z,96333.69
2023-05-01T11:55:59.377Z,96341.88
2023-05-01T11:58:36.513Z,96326.78
2023-05-01T12:01:04.658Z,96327.25
2023-05-01T12:03:43.200Z,96333.22
2023-05-01T12:06:13.112Z,96337.63
2023-05-01T12:08:45.917Z,96328.31
2023-05-01T12:11:14.308Z,96299.59
2023-05-01T12:13:42.811Z,96325.59
2023-05-01T12:16:11.701Z,96327.66
2023-05-01T12:18:39.623Z,96329.31
2023-05-01T12:21:16.780Z,96326.00
2023-05-01T12:23:46.134Z,96326.06
2023-05-01T12:26:17.761Z,96330.66
2023-05-01T12:28:55.251Z,96334.72
2023-05-01T12:31:24.112Z,96334.16
2023-05-01T12:33:56.700Z,96331.75
2023-05-01T12:36:27.542Z,96324.22
2023-05-01T12:39:05.681Z,96334.47
2023-05-01T12:41:35.433Z,96328.63
2023-05-01T12:44:03.766Z,96331.41
2023-05-01T12:46:31.710Z,96331.34
2023-05-01T12:48:59.605Z,96323.75
2023-05-01T12:51:28.496Z,96313.16
2023-05-01T12:53:58.256Z,96323.44
2023-05-01T12:56:27.480Z,96320.59
2023-05-01T12:58:55.504Z,96279.38
2023-05-01T13:01:27.382Z,96308.56
2023-05-01T13:03:58.048Z,96326.28
2023-05-01T13:06:34.331Z,96314.19
2023-05-01T13:09:10.534Z,96319.19
2023-05-01T13:11:40.093Z,96323.22
2023-05-01T13:14:09.082Z,96329.28
2023-05-01T13:16:46.412Z,96331.41
2023-05-01T13:19:15.605Z,96340.56
2023-05-01T13:21:50.809Z,96341.69
2023-05-01T13:24:18.758Z,96351.66
2023-05-01T13:26:48.706Z,96343.41
2023-05-01T13:29:17.411Z,96352.41
2023-05-01T13:31:45.900Z,96344.91
2023-05-01T13:34:22.705Z,96343.19
2023-05-01T13:36:50.853Z,96344.19
2023-05-01T13:39:21.402Z,96337.41
2023-05-01T13:41:51.373Z,96321.75
2023-05-01T13:44:20.290Z,96314.88
2023-05-01T13:46:48.433Z,96313.25
2023-05-01T13:49:18.801Z,96303.63
2023-05-01T13:51:47.450Z,96305.91
2023-05-01T13:54:15.942Z,96299.94
2023-05-01T13:56:44.034Z,96298.84
2023-05-01T13:59:13.209Z,96292.53
2023-05-01T14:01:46.278Z,96282.84
2023-05-01T14:04:18.664Z,96293.41
2023-05-01T14:06:48.950Z,96290.22
2023-05-01T14:09:18.615Z,96291.00
2023-05-01T14:11:48.839Z,96297.06
2023-05-01T14:14:19.558Z,96293.59
2023-05-01T14:16:49.022Z,96289.97
2023-05-01T14:19:18.177Z,96301.28
2023-05-01T14:21:47.162Z,96305.31
2023-05-01T14:24:18.015Z,96305.59
2023-05-01T14:26:48.992Z,96305.03
2023-05-01T14:29:24.748Z,96301.81
2023-05-01T14:31:54.362Z,96307.97
2023-05-01T14:34:22.564Z,96305.56
2023-05-01T14:36:50.361Z,96312.00
2023-05-01T14:39:18.375Z,96310.13
2023-05-01T14:41:46.445Z,96301.09
2023-05-01T14:44:16.692Z,96312.72
2023-05-01T14:46:49.589Z,96314.06
2023-05-01T14:49:20.549Z,96312.50
2023-05-01T14:51:48.484Z,96321.41
2023-05-01T14:54:16.660Z,96316.22
2023-05-01T14:56:45.059Z,96313.69
2023-05-01T14:59:13.093Z,96311.84
2023-05-01T15:01:41.231Z,96313.00
2023-05-01T15:04:11.760Z,96301.06
2023-05-01T15:06:39.743Z,96308.38
2023-05-01T15:09:07.728Z,96312.53
2023-05-01T15:11:35.513Z,96316.38
2023-05-01T15:14:04.217Z,96305.56
2023-05-01T15:16:32.855Z,96311.50
2023-05-01T15:19:01.112Z,96319.31
2023-05-01T15:21:30.192Z,96325.47
2023-05-01T15:23:58.120Z,96308.31
2023-05-01T15:26:25.907Z,96314.72
2023-05-01T15:28:53.844Z,96313.13
2023-05-01T15:31:22.777Z,96313.63
2023-05-01T15:33:50.759Z,96315.66
2023-05-01T15:36:18.788Z,96308.00
2023-05-01T15:38:48.548Z,96314.97
2023-05-01T15:41:18.759Z,96304.84
2023-05-01T15:43:46.910Z,96321.19
2023-05-01T15:46:15.308Z,96318.78
2023-05-01T15:48:43.144Z,96322.75
2023-05-01T15:51:10.931Z,96308.34
2023-05-01T15:53:38.727Z,96318.28
2023-05-01T15:56:09.868Z,96322.22
2023-05-01T15:58:37.682Z,96346.38
2023-05-01T16:01:06.037Z,96351.56
2023-05-01T16:03:35.069Z,96358.78
2023-05-01T16:06:04.849Z,96368.81
2023-05-01T16:08:33.445Z,96366.00
2023-05-01T16:11:01.380Z,96373.59
2023-05-01T16:13:31.034Z,96390.66
2023-05-01T16:15:58.784Z,96400.72
2023-05-01T16:18:27.000Z,96407.56
2023-05-01T16:20:56.548Z,96419.00
2023-05-01T16:23:26.679Z,96429.81
2023-05-01T16:25:54.655Z,96429.22
2023-05-01T16:28:22.408Z,96425.06
2023-05-01T16:30:51.718Z,96442.75
2023-05-01T16:33:23.281Z,96434.28
2023-05-01T16:35:51.138Z,96433.31
2023-05-01T16:38:20.113Z,96438.69
2023-05-01T16:40:49.170Z,96443.09
2023-05-01T16:43:17.399Z,96437.78
2023-05-01T16:45:46.638Z,96456.81
2023-05-01T16:48:21.744Z,96450.78
2023-05-01T16:50:49.703Z,96408.34
2023-05-01T16:53:17.963Z,96442.19
2023-05-01T16:55:45.884Z,96439.84
2023-05-01T16:58:13.609Z,96427.28
2023-05-01T17:00:42.718Z,96436.78
2023-05-01T17:03:10.613Z,96424.69
2023-05-01T17:05:39.996Z,96419.13
2023-05-01T17:08:07.845Z,96429.69
2023-05-01T17:10:35.723Z,96418.91
2023-05-01T17:13:03.542Z,96428.09
2023-05-01T17:15:31.358Z,96432.09
2023-05-01T17:17:59.262Z,96421.47
2023-05-01T17:20:27.163Z,96434.50
2023-05-01T17:22:56.324Z,96431.69
2023-05-01T17:25:24.149Z,96439.56
2023-05-01T17:27:51.953Z,96423.78
2023-05-01T17:30:19.932Z,96438.75
2023-05-01T17:32:47.884Z,96443.41
2023-05-01T17:35:16.939Z,96434.16
2023-05-01T17:37:45.038Z,96438.50
2023-05-01T17:40:14.475Z,96429.31
2023-05-01T17:42:42.495Z,96425.78
2023-05-01T17:45:11.056Z,96416.63
2023-05-01T17:47:41.737Z,96428.34
2023-05-01T17:50:11.595Z,96414.50
2023-05-01T17:52:39.796Z,96415.47
2023-05-01T17:55:08.467Z,96423.59
2023-05-01T17:57:38.107Z,96438.50
2023-05-01T18:00:07.082Z,96429.53
2023-05-01T18:02:35.122Z,96422.94
2023-05-01T18:05:03.100Z,96426.53
2023-05-01T18:07:31.546Z,96439.78
2023-05-01T18:10:00.113Z,96436.03
2023-05-01T18:12:29.375Z,96442.22
2023-05-01T18:14:58.552Z,96447.53
2023-05-01T18:17:26.516Z,96428.94
2023-05-01T18:19:54.273Z,96441.88
2023-05-01T18:22:22.725Z,96449.25
2023-05-01T18:24:50.877Z,96451.59
2023-05-01T18:27:19.340Z,96453.06
2023-05-01T18:29:47.238Z,96464.63
2023-05-01T18:32:16.386Z,96463.44
2023-05-01T18:34:45.887Z,96468.38
2023-05-01T18:37:13.733Z,96473.25
2023-05-01T18:39:41.500Z,96480.03
2023-05-01T18:42:10.095Z,96483.16
2023-05-01T18:44:37.861Z,96479.81
2023-05-01T18:47:05.832Z,96480.50
2023-05-01T18:49:35.252Z,96480.25
2023-05-01T18:52:03.332Z,96489.44
2023-05-01T18:54:31.483Z,96485.31
2023-05-01T18:56:59.235Z,96473.94
2023-05-01T18:59:30.908Z,96478.03
2023-05-01T19:01:58.833Z,96489.50
2023-05-01T19:04:26.674Z,96480.13
2023-05-01T19:06:57.734Z,96489.72
2023-05-01T19:09:25.650Z,96505.63
2023-05-01T19:11:53.392Z,96507.63
2023-05-01T19:14:22.057Z,96505.44
2023-05-01T19:16:49.863Z,96515.69
2023-05-01T19:19:17.795Z,96515.19
2023-05-01T19:21:45.533Z,96531.25
2023-05-01T19:24:14.613Z,96523.13
2023-05-01T19:26:42.402Z,96547.75
2023-05-01T19:29:10.168Z,96541.38
2023-05-01T19:31:37.966Z,96555.56
2023-05-01T19:34:05.712Z,96560.81
2023-05-01T19:36:33.605Z,96559.16
2023-05-01T19:39:01.462Z,96573.94
2023-05-01T19:41:30.621Z,96578.72
2023-05-01T19:43:58.414Z,96578.72
2023-05-01T19:46:27.393Z,96590.22
2023-05-01T19:48:55.251Z,96559.88
2023-05-01T19:51:23.008Z,96580.47
2023-05-01T19:53:50.760Z,96587.53
2023-05-01T19:56:18.956Z,96582.19
2023-05-01T19:58:48.021Z,96590.69
2023-05-01T20:01:15.750Z,96590.56
2023-05-01T20:03:43.615Z,96593.59
2023-05-01T20:06:11.449Z,96594.88
2023-05-01T20:08:39.248Z,96584.63
2023-05-01T20:11:07.320Z,96602.66
2023-05-01T20:13:35.195Z,96607.41
2023-05-01T20:16:04.998Z,96615.44
2023-05-01T20:18:32.729Z,96608.13
2023-05-01T20:21:00.546Z,96610.81
2023-05-01T20:23:29.087Z,96609.38
2023-05-01T20:25:56.905Z,96615.22
2023-05-01T20:28:24.656Z,96610.31
2023-05-01T20:30:52.420Z,96612.16
2023-05-01T20:33:21.566Z,96613.34
2023-05-01T20:35:49.358Z,96617.75
2023-05-01T20:38:17.143Z,96621.94
2023-05-01T20:40:44.994Z,96615.22
2023-05-01T20:43:13.245Z,96612.72
2023-05-01T20:45:40.928Z,96621.94
2023-05-01T20:48:08.728Z,96610.53
2023-05-01T20:50:37.973Z,96611.31
2023-05-01T20:53:05.833Z,96616.22
2023-05-01T20:55:33.604Z,96625.66
2023-05-01T20:58:01.364Z,96549.88
2023-05-01T21:00:29.064Z,96627.97
2023-05-01T21:02:59.269Z,96628.44
2023-05-01T21:05:27.142Z,96637.50
2023-05-01T21:07:58.151Z,96635.03
2023-05-01T21:10:26.111Z,96655.06
2023-05-01T21:12:56.386Z,96650.88
2023-05-01T21:15:24.621Z,96636.97
2023-05-01T21:17:52.645Z,96651.25
2023-05-01T21:20:31.409Z,96658.00
2023-05-01T21:23:01.196Z,96653.34
2023-05-01T21:25:31.974Z,96646.97
2023-05-01T21:28:02.011Z,96643.00
2023-05-01T21:30:33.300Z,96649.72
2023-05-01T21:33:01.382Z,96641.97
2023-05-01T21:35:30.009Z,96648.59
2023-05-01T21:37:58.238Z,96645.34
2023-05-01T21:40:28.153Z,96642.66
2023-05-01T21:42:56.611Z,96638.81
2023-05-01T21:45:25.514Z,96649.25
2023-05-01T21:47:53.332Z,96645.66
2023-05-01T21:50:22.224Z,96652.44
2023-05-01T21:52:51.098Z,96652.13
2023-05-01T21:55:20.273Z,96645.03
2023-05-01T21:57:50.593Z,96642.91
2023-05-01T22:00:19.198Z,96653.06
2023-05-01T22:02:48.983Z,96656.84
2023-05-01T22:05:18.853Z,96662.22
2023-05-01T22:07:48.343Z,96572.06
2023-05-01T22:10:18.052Z,96657.00
2023-05-01T22:12:46.993Z,96668.16
2023-05-01T22:15:16.622Z,96665.00
2023-05-01T22:17:45.100Z,96659.44
2023-05-01T22:20:13.262Z,96659.44
2023-05-01T22:22:42.358Z,96656.13
2023-05-01T22:25:11.995Z,96665.06
2023-05-01T22:27:39.746Z,96657.28
2023-05-01T22:30:08.416Z,96667.06
2023-05-01T22:32:37.776Z,96664.53
2023-05-01T22:35:08.360Z,96660.31
2023-05-01T22:37:36.130Z,96652.53
2023-05-01T22:40:04.388Z,96657.53
2023-05-01T22:42:32.156Z,96670.34
2023-05-01T22:44:59.899Z,96668.72
2023-05-01T22:47:27.676Z,96655.09
2023-05-01T22:52:24.617Z,96658.50
2023-05-01T22:54:52.946Z,96597.81
2023-05-01T22:57:20.897Z,96665.25
2023-05-01T22:59:49.433Z,96662.81
2023-05-01T23:02:18.924Z,96666.19
2023-05-01T23:04:48.175Z,96666.66
2023-05-01T23:07:17.688Z,96655.38
2023-05-01T23:09:46.707Z,96666.41
2023-05-01T23:12:19.919Z,96669.00
2023-05-01T23:14:47.928Z,96662.84
2023-05-01T23:17:16.181Z,96661.25
2023-05-01T23:19:44.474Z,96668.22
2023-05-01T23:22:13.102Z,96671.38
2023-05-01T23:24:47.573Z,96670.72
2023-05-01T23:27:18.571Z,96665.72
2023-05-01T23:29:55.105Z,96681.50
2023-05-01T23:32:27.992Z,96666.19
2023-05-01T23:34:56.596Z,96673.53
2023-05-01T23:37:24.985Z,96668.28
2023-05-01T23:39:54.377Z,96677.44
2023-05-01T23:42:23.435Z,96683.72
2023-05-01T23:44:51.704Z,96678.00
2023-05-01T23:47:19.522Z,96674.34
2023-05-01T23:49:47.841Z,96684.63
2023-05-01T23:52:15.725Z,96683.84
2023-05-01T23:54:43.489Z,96679.75
2023-05-01T23:57:12.746Z,96652.59
2023-05-01T23:59:40.495Z,96685.91
